Time;durP1;ratioP1;P1;durP2;ratioP2;P2;SDS_P1;SDS_P2;PMS_P1;PMS_P2;Temp;Humidity;BMP_temperature;BMP_pressure;BME280_temperature;BME280_humidity;BME280_pressure;Samples;Min_cycle;Max_cycle;Signal;HPM_P1;HPM_P2
2022/03/28 00:00:25;;;;;;;14.85;6.72;;;10.80;92.30;;;;;;5075742;28;20016;-63
2022/03/28 00:02:51;;;;;;;12.10;6.45;;;10.80;92.80;;;;;;5075851;28;20429;-63
2022/03/28 00:05:17;;;;;;;12.27;6.53;;;10.80;93.10;;;;;;5075470;28;20021;-63
2022/03/28 00:07:43;;;;;;;11.00;5.77;;;10.70;93.40;;;;;;5075608;28;20094;-63
2022/03/28 00:10:09;;;;;;;11.60;6.55;;;10.70;94.00;;;;;;5075724;28;20098;-63
2022/03/28 00:12:37;;;;;;;14.15;6.35;;;10.70;94.20;;;;;;5075874;28;20032;-63
2022/03/28 00:15:03;;;;;;;14.70;7.22;;;10.60;94.60;;;;;;5057267;28;20128;-63
2022/03/28 00:17:31;;;;;;;13.27;6.32;;;10.50;95.20;;;;;;5075271;28;20052;-63
2022/03/28 00:19:57;;;;;;;15.95;6.85;;;10.50;95.50;;;;;;5075495;28;20391;-64
2022/03/28 00:22:22;;;;;;;16.93;6.77;;;10.50;95.90;;;;;;5075458;28;20489;-64
2022/03/28 00:24:48;;;;;;;10.00;5.93;;;10.50;96.10;;;;;;5075230;28;20043;-64
2022/03/28 00:27:14;;;;;;;12.65;6.18;;;10.40;96.30;;;;;;5075563;28;20028;-64
2022/03/28 00:29:39;;;;;;;16.43;7.20;;;10.50;96.60;;;;;;5075248;28;20028;-63
2022/03/28 00:32:05;;;;;;;14.60;6.90;;;10.40;96.80;;;;;;5057269;28;20021;-63
2022/03/28 00:34:31;;;;;;;14.43;6.43;;;10.40;97.10;;;;;;5075080;28;20033;-64
2022/03/28 00:36:57;;;;;;;12.73;7.43;;;10.40;97.50;;;;;;5075012;28;20079;-63
2022/03/28 00:39:22;;;;;;;15.97;6.63;;;10.30;97.70;;;;;;5074929;28;20031;-63
2022/03/28 00:41:49;;;;;;;11.33;6.47;;;10.30;98.00;;;;;;5075105;28;20023;-63
2022/03/28 00:44:15;;;;;;;14.27;7.00;;;10.30;98.40;;;;;;5074707;28;20032;-62
2022/03/28 00:46:41;;;;;;;14.20;6.47;;;10.20;98.70;;;;;;5074986;28;20048;-62
2022/03/28 00:49:06;;;;;;;12.85;6.90;;;10.20;99.00;;;;;;5074743;28;20341;-63
2022/03/28 00:51:32;;;;;;;10.93;6.18;;;10.20;99.20;;;;;;5075132;28;20040;-63
2022/03/28 00:53:59;;;;;;;11.38;7.35;;;10.10;99.20;;;;;;5076010;28;20020;-64
2022/03/28 00:56:25;;;;;;;11.52;6.43;;;10.10;99.40;;;;;;5059582;28;20024;-63
2022/03/28 00:58:50;;;;;;;17.17;7.10;;;10.10;99.40;;;;;;5060670;28;20078;-63
2022/03/28 01:01:16;;;;;;;10.87;6.40;;;10.10;99.60;;;;;;5078210;28;20259;-63
2022/03/28 01:03:42;;;;;;;11.52;7.07;;;10.10;99.70;;;;;;5058043;28;20033;-63
2022/03/28 01:06:08;;;;;;;15.70;7.20;;;10.10;99.60;;;;;;5076823;28;20032;-64
2022/03/28 01:08:34;;;;;;;15.13;6.60;;;10.00;99.60;;;;;;5076515;28;20266;-64
2022/03/28 01:11:03;;;;;;;;;;;9.90;99.80;;;;;;5077179;28;20482;-64
2022/03/28 01:13:28;;;;;;;14.70;7.03;;;9.90;99.90;;;;;;5075497;28;19904;-63
2022/03/28 01:15:54;;;;;;;14.30;6.72;;;9.90;99.90;;;;;;5074353;28;20052;-61
2022/03/28 01:18:19;;;;;;;15.30;7.37;;;9.80;99.90;;;;;;5073952;28;20114;-62
2022/03/28 01:20:45;;;;;;;12.10;7.00;;;9.80;99.90;;;;;;5074025;28;20040;-62
2022/03/28 01:23:11;;;;;;;13.50;6.67;;;9.70;99.90;;;;;;5073998;28;20027;-62
2022/03/28 01:25:36;;;;;;;13.90;7.40;;;9.70;99.90;;;;;;5073940;28;20025;-63
2022/03/28 01:28:03;;;;;;;14.27;6.27;;;9.70;99.90;;;;;;5073878;28;20025;-62
2022/03/28 01:30:30;;;;;;;14.48;6.43;;;9.70;99.90;;;;;;5073573;28;20368;-62
2022/03/28 01:32:57;;;;;;;15.88;6.75;;;9.70;99.90;;;;;;5073758;28;20035;-63
2022/03/28 01:35:32;;;;;;;11.77;6.10;;;9.70;99.90;;;;;;5055651;28;20055;-63
2022/03/28 01:37:59;;;;;;;13.55;6.18;;;9.70;99.90;;;;;;5073695;28;20031;-62
2022/03/28 01:40:25;;;;;;;13.80;6.65;;;9.70;99.90;;;;;;5073660;28;20404;-62
2022/03/28 01:42:51;;;;;;;14.63;7.40;;;9.60;99.90;;;;;;5074096;28;20476;-62
2022/03/28 01:45:18;;;;;;;10.83;6.27;;;9.60;99.90;;;;;;5073251;28;20064;-62
2022/03/28 01:47:47;;;;;;;17.23;6.60;;;9.60;99.90;;;;;;5073970;28;20420;-62
2022/03/28 01:50:13;;;;;;;12.88;6.72;;;9.60;99.90;;;;;;5073503;28;20031;-63
2022/03/28 01:52:39;;;;;;;13.68;6.75;;;9.60;99.90;;;;;;5073668;28;20478;-61
2022/03/28 01:55:05;;;;;;;14.02;6.90;;;9.60;99.90;;;;;;5073650;28;20029;-63
2022/03/28 01:57:31;;;;;;;12.32;6.25;;;9.60;99.90;;;;;;5055477;28;20512;-63
2022/03/28 01:59:57;;;;;;;14.47;6.57;;;9.60;99.90;;;;;;5073512;28;20111;-62
2022/03/28 02:02:23;;;;;;;14.13;6.97;;;9.90;99.90;;;;;;5073368;28;20027;-62
2022/03/28 02:04:48;;;;;;;10.57;6.25;;;10.00;99.90;;;;;;5073729;28;20027;-62
2022/03/28 02:07:16;;;;;;;11.87;7.10;;;10.10;99.90;;;;;;5073351;28;20061;-62
2022/03/28 02:09:41;;;;;;;15.10;7.22;;;10.10;99.90;;;;;;5073205;28;20108;-62
2022/03/28 02:12:07;;;;;;;11.23;6.40;;;10.00;99.90;;;;;;5072807;28;20095;-62
2022/03/28 02:14:33;;;;;;;17.20;7.40;;;10.00;99.90;;;;;;5073383;28;20028;-63
2022/03/28 02:16:58;;;;;;;18.20;7.53;;;9.80;99.90;;;;;;5055276;28;20387;-63
2022/03/28 02:19:24;;;;;;;13.43;7.23;;;9.60;99.90;;;;;;5073152;28;20032;-63
2022/03/28 02:21:50;;;;;;;14.90;7.85;;;9.50;99.90;;;;;;5055690;28;20115;-63
2022/03/28 02:24:15;;;;;;;13.97;7.80;;;9.30;99.90;;;;;;5073562;28;20504;-63
2022/03/28 02:26:41;;;;;;;16.50;8.67;;;9.20;99.90;;;;;;5074305;28;20034;-63
2022/03/28 02:29:06;;;;;;;14.90;8.17;;;9.20;99.90;;;;;;5074106;28;20581;-63
2022/03/28 02:31:32;;;;;;;18.27;7.97;;;9.10;99.90;;;;;;5077511;28;20047;-63
2022/03/28 02:33:58;;;;;;;14.93;8.00;;;9.10;99.90;;;;;;5078602;28;20025;-64
2022/03/28 02:36:23;;;;;;;14.57;8.47;;;9.10;99.90;;;;;;5075335;28;20082;-64
2022/03/28 02:38:49;;;;;;;14.93;8.07;;;9.00;99.90;;;;;;5056746;28;20032;-63
2022/03/28 02:41:14;;;;;;;19.30;8.97;;;9.00;99.90;;;;;;5073381;28;20399;-63
2022/03/28 02:43:40;;;;;;;17.00;8.20;;;9.00;99.90;;;;;;5073073;28;20040;-63
2022/03/28 02:46:07;;;;;;;19.60;7.70;;;8.90;99.90;;;;;;5096182;23;20040;-63
2022/03/28 02:48:33;;;;;;;13.05;7.25;;;8.90;99.90;;;;;;5073451;28;20028;-64
2022/03/28 02:50:58;;;;;;;14.67;8.00;;;8.90;99.90;;;;;;5073555;28;20020;-64
2022/03/28 02:53:24;;;;;;;14.73;8.40;;;8.80;99.90;;;;;;5073359;28;20546;-63
2022/03/28 02:55:49;;;;;;;16.27;7.20;;;8.80;99.90;;;;;;5073473;28;20402;-63
2022/03/28 02:58:15;;;;;;;15.37;8.60;;;8.80;99.90;;;;;;5072959;28;20035;-63
2022/03/28 03:00:41;;;;;;;18.00;7.40;;;8.80;99.90;;;;;;5073731;28;20103;-63
2022/03/28 03:03:06;;;;;;;13.93;7.53;;;8.80;99.90;;;;;;5072898;28;20496;-63
2022/03/28 03:05:32;;;;;;;14.20;7.17;;;8.80;99.90;;;;;;5054836;28;20287;-63
2022/03/28 03:07:58;;;;;;;13.83;6.73;;;8.70;99.90;;;;;;5073055;28;20432;-63
2022/03/28 03:10:23;;;;;;;17.97;7.47;;;8.70;99.90;;;;;;5073331;28;20049;-63
2022/03/28 03:12:49;;;;;;;15.53;7.20;;;8.70;99.90;;;;;;5072908;28;20389;-64
2022/03/28 03:15:14;;;;;;;11.30;6.67;;;8.60;99.90;;;;;;5072853;28;20116;-63
2022/03/28 03:17:40;;;;;;;13.40;6.47;;;8.60;99.90;;;;;;5072607;28;20466;-64
2022/03/28 03:20:06;;;;;;;13.23;6.87;;;8.60;99.90;;;;;;5072791;28;20025;-63
2022/03/28 03:22:32;;;;;;;15.00;6.85;;;8.60;99.90;;;;;;5072923;28;20025;-64
2022/03/28 03:24:58;;;;;;;12.80;6.80;;;8.60;99.90;;;;;;5075696;28;20024;-63
2022/03/28 03:27:23;;;;;;;13.93;7.07;;;8.50;99.90;;;;;;5076689;28;20263;-63
2022/03/28 03:29:50;;;;;;;13.93;7.20;;;8.50;99.90;;;;;;5076890;28;20024;-63
2022/03/28 03:32:15;;;;;;;15.65;7.28;;;8.60;99.90;;;;;;5058935;28;20387;-63
2022/03/28 03:34:41;;;;;;;52.90;30.27;;;8.50;99.90;;;;;;5076657;28;20477;-63
2022/03/28 03:37:07;;;;;;;108.53;55.53;;;8.50;99.90;;;;;;5076393;28;20017;-63
2022/03/28 03:39:35;;;;;;;14.95;7.72;;;8.50;99.90;;;;;;5058385;28;20025;-63
2022/03/28 03:42:01;;;;;;;21.60;11.07;;;8.60;99.90;;;;;;5076414;28;20116;-64
2022/03/28 03:44:26;;;;;;;25.15;12.98;;;8.60;99.90;;;;;;5058133;28;20023;-64
2022/03/28 03:46:52;;;;;;;38.53;22.03;;;8.50;99.90;;;;;;5076481;28;20033;-64
2022/03/28 03:49:18;;;;;;;43.20;26.42;;;8.40;99.90;;;;;;5057923;28;20021;-63
2022/03/28 03:51:44;;;;;;;21.80;13.60;;;8.40;99.90;;;;;;5075943;28;20116;-64
2022/03/28 03:54:10;;;;;;;21.83;14.38;;;8.30;99.90;;;;;;5057988;28;20107;-64
2022/03/28 03:56:37;;;;;;;29.73;21.02;;;8.30;99.90;;;;;;5075910;28;20107;-62
2022/03/28 03:59:03;;;;;;;19.48;11.55;;;8.20;99.90;;;;;;5075996;28;20025;-61
2022/03/28 04:01:29;;;;;;;15.20;9.30;;;8.20;99.90;;;;;;5076289;28;20505;-63
2022/03/28 04:03:56;;;;;;;13.80;7.85;;;8.20;99.90;;;;;;5076065;28;20033;-64
2022/03/28 04:06:22;;;;;;;14.23;7.97;;;8.10;99.90;;;;;;5076314;28;20033;-65
2022/03/28 04:08:47;;;;;;;10.95;6.55;;;8.10;99.90;;;;;;5076699;28;20383;-63
2022/03/28 04:11:13;;;;;;;14.07;6.53;;;8.00;99.90;;;;;;5076712;28;20359;-63
2022/03/28 04:13:39;;;;;;;13.40;7.22;;;8.00;99.90;;;;;;5076316;28;20435;-65
2022/03/28 04:16:05;;;;;;;24.13;9.33;;;7.90;99.90;;;;;;5076217;28;20437;-65
2022/03/28 04:18:30;;;;;;;18.55;12.95;;;7.90;99.90;;;;;;5076340;28;20029;-64
2022/03/28 04:20:56;;;;;;;19.50;10.37;;;7.80;99.90;;;;;;5076241;28;20033;-63
2022/03/28 04:23:23;;;;;;;20.50;12.05;;;7.90;99.90;;;;;;5076110;28;20024;-64
2022/03/28 04:25:49;;;;;;;23.90;14.25;;;7.90;99.90;;;;;;5076028;28;20097;-65
2022/03/28 04:28:15;;;;;;;15.13;7.63;;;7.90;99.90;;;;;;5076200;28;20482;-65
2022/03/28 04:30:40;;;;;;;11.68;7.40;;;7.90;99.90;;;;;;5076320;28;20107;-63
2022/03/28 04:33:09;;;;;;;15.47;7.43;;;7.80;99.90;;;;;;5058694;28;20078;-64
2022/03/28 04:35:39;;;;;;;12.55;6.85;;;7.80;99.90;;;;;;5075913;28;20115;-64
2022/03/28 04:38:05;;;;;;;17.52;8.75;;;7.70;99.90;;;;;;5076168;28;20032;-65
2022/03/28 04:40:33;;;;;;;18.30;7.80;;;7.70;99.90;;;;;;5076398;28;20063;-65
2022/03/28 04:43:00;;;;;;;15.02;7.57;;;7.70;99.90;;;;;;5076023;28;20020;-64
2022/03/28 04:45:26;;;;;;;12.93;7.07;;;7.70;99.90;;;;;;5057891;28;20052;-65
2022/03/28 04:47:52;;;;;;;;;;;7.70;99.90;;;;;;5076633;28;20021;-64
2022/03/28 04:50:18;;;;;;;14.07;7.43;;;7.70;99.90;;;;;;5076342;28;20368;-65
2022/03/28 04:52:43;;;;;;;14.53;7.30;;;7.70;99.90;;;;;;5076678;28;20051;-62
2022/03/28 04:55:09;;;;;;;16.23;7.70;;;7.70;99.90;;;;;;5076572;28;20258;-64
2022/03/28 04:57:35;;;;;;;16.58;6.95;;;7.60;99.90;;;;;;5075984;28;20078;-64
2022/03/28 05:00:01;;;;;;;13.00;7.50;;;7.60;99.90;;;;;;5076373;28;20032;-65
2022/03/28 05:02:26;;;;;;;17.63;7.57;;;7.60;99.90;;;;;;5058096;28;20032;-64
2022/03/28 05:04:52;;;;;;;15.23;7.53;;;7.70;99.90;;;;;;5075916;28;20025;-64
2022/03/28 05:07:27;;;;;;;17.67;9.00;;;7.70;99.90;;;;;;5074725;28;20024;-61
2022/03/28 05:09:54;;;;;;;18.05;7.43;;;7.70;99.90;;;;;;5075230;28;20077;-61
2022/03/28 05:12:23;;;;;;;15.13;7.53;;;7.80;99.90;;;;;;5074549;28;20063;-62
2022/03/28 05:14:53;;;;;;;16.25;7.82;;;7.90;99.90;;;;;;5075010;28;20029;-60
2022/03/28 05:17:26;;;;;;;13.90;7.47;;;7.90;99.90;;;;;;5056569;28;20028;-61
2022/03/28 05:19:53;;;;;;;15.93;7.85;;;7.90;99.90;;;;;;5074777;28;20020;-58
2022/03/28 05:22:20;;;;;;;14.75;7.53;;;8.00;99.90;;;;;;5074710;28;20471;-59
2022/03/28 05:24:46;;;;;;;15.43;7.40;;;8.00;99.90;;;;;;5074210;28;20029;-61
2022/03/28 05:27:12;;;;;;;17.73;8.68;;;8.20;99.90;;;;;;5056428;28;20035;-60
2022/03/28 05:29:37;;;;;;;13.23;7.70;;;8.20;99.90;;;;;;5074709;28;20028;-59
2022/03/28 05:32:04;;;;;;;17.37;7.80;;;8.20;99.90;;;;;;5074028;28;20024;-59
2022/03/28 05:34:30;;;;;;;14.45;7.07;;;8.10;99.90;;;;;;5074197;28;20027;-60
2022/03/28 05:37:00;;;;;;;13.83;7.63;;;8.20;99.90;;;;;;5055784;28;20025;-58
2022/03/28 05:39:27;;;;;;;15.20;7.97;;;8.20;99.90;;;;;;5074509;28;20664;-61
2022/03/28 05:41:53;;;;;;;16.15;7.43;;;8.10;99.90;;;;;;5074164;28;20032;-60
2022/03/28 05:44:20;;;;;;;20.60;8.07;;;8.10;99.90;;;;;;5073570;28;20036;-60
2022/03/28 05:46:48;;;;;;;16.52;8.45;;;8.20;99.90;;;;;;5073276;28;20498;-58
2022/03/28 05:49:14;;;;;;;15.73;8.18;;;8.10;99.90;;;;;;5074070;28;20043;-61
2022/03/28 05:51:39;;;;;;;18.77;8.75;;;8.20;99.90;;;;;;5074279;28;20028;-58
2022/03/28 05:54:05;;;;;;;18.27;8.07;;;8.30;99.90;;;;;;5056102;28;20029;-60
2022/03/28 05:56:31;;;;;;;29.90;8.73;;;8.30;99.90;;;;;;5055836;28;20025;-59
2022/03/28 05:58:57;;;;;;;19.03;7.60;;;8.30;99.90;;;;;;5074054;28;20340;-62
2022/03/28 06:01:22;;;;;;;16.80;8.50;;;8.30;99.90;;;;;;5074100;28;20760;-61
2022/03/28 06:03:48;;;;;;;13.65;7.60;;;8.30;99.90;;;;;;5074402;28;20100;-58
2022/03/28 06:06:14;;;;;;;15.67;8.03;;;8.20;99.90;;;;;;5073910;28;20037;-59
2022/03/28 06:08:39;;;;;;;14.27;7.50;;;8.20;99.90;;;;;;5073734;28;20078;-63
2022/03/28 06:11:05;;;;;;;15.60;8.43;;;8.20;99.90;;;;;;5073563;28;20254;-61
2022/03/28 06:13:31;;;;;;;20.20;7.93;;;8.20;99.90;;;;;;5073620;28;20104;-62
2022/03/28 06:15:57;;;;;;;16.27;7.67;;;8.30;99.90;;;;;;5073778;28;20072;-60
2022/03/28 06:18:23;;;;;;;17.55;8.25;;;8.30;99.90;;;;;;5073609;28;20035;-60
2022/03/28 06:20:49;;;;;;;17.00;8.33;;;8.30;99.90;;;;;;5073592;28;20024;-61
2022/03/28 06:23:14;;;;;;;15.07;8.30;;;8.30;99.90;;;;;;5073428;28;20482;-61
2022/03/28 06:25:40;;;;;;;22.57;8.83;;;8.30;99.90;;;;;;5073227;28;20479;-61
2022/03/28 06:28:06;;;;;;;19.80;8.60;;;8.40;99.90;;;;;;5055402;28;20029;-62
2022/03/28 06:30:32;;;;;;;15.57;7.93;;;8.50;99.90;;;;;;5073440;28;20067;-60
2022/03/28 06:32:58;;;;;;;12.75;7.50;;;8.50;99.90;;;;;;5073946;28;20360;-59
2022/03/28 06:35:23;;;;;;;20.07;8.47;;;8.60;99.90;;;;;;5073081;28;20032;-59
2022/03/28 06:37:52;;;;;;;13.87;7.97;;;8.60;99.90;;;;;;5073282;28;20103;-60
2022/03/28 06:40:18;;;;;;;14.65;7.38;;;8.60;99.90;;;;;;5073556;28;20027;-60
2022/03/28 06:42:44;;;;;;;16.58;8.45;;;8.70;99.90;;;;;;5073136;28;20032;-59
2022/03/28 06:45:10;;;;;;;19.33;7.82;;;8.70;99.90;;;;;;5072812;28;20037;-60
2022/03/28 06:47:36;;;;;;;;;;;8.80;99.90;;;;;;5073526;28;20043;-60
2022/03/28 06:50:02;;;;;;;16.20;8.55;;;8.80;99.90;;;;;;5072825;28;19905;-59
2022/03/28 06:52:28;;;;;;;19.00;9.73;;;8.80;99.90;;;;;;5072782;28;20055;-60
2022/03/28 06:54:53;;;;;;;24.17;12.97;;;9.00;99.90;;;;;;5072780;28;20033;-61
2022/03/28 06:57:19;;;;;;;17.83;8.83;;;9.00;99.90;;;;;;5073213;28;20471;-58
2022/03/28 06:59:45;;;;;;;17.50;8.07;;;9.00;99.90;;;;;;5076625;28;20017;-61
2022/03/28 07:02:10;;;;;;;16.63;8.23;;;9.00;99.90;;;;;;5076773;28;20483;-59
2022/03/28 07:04:36;;;;;;;21.77;9.77;;;9.30;99.90;;;;;;5058525;28;20020;-58
2022/03/28 07:07:02;;;;;;;25.93;8.97;;;9.30;99.90;;;;;;5076450;28;20540;-63
2022/03/28 07:09:28;;;;;;;22.58;10.02;;;9.40;99.90;;;;;;5076466;28;20028;-60
2022/03/28 07:11:55;;;;;;;21.00;9.82;;;9.40;99.90;;;;;;5076166;28;20029;-57
2022/03/28 07:14:21;;;;;;;16.60;8.65;;;9.50;99.60;;;;;;5076403;28;20023;-59
2022/03/28 07:16:46;;;;;;;16.65;8.85;;;9.50;99.50;;;;;;5076751;28;20024;-60
2022/03/28 07:19:13;;;;;;;18.30;8.20;;;9.60;99.50;;;;;;5076262;28;20063;-60
2022/03/28 07:21:39;;;;;;;16.50;9.00;;;9.60;99.50;;;;;;5076706;28;20423;-60
2022/03/28 07:24:05;;;;;;;22.13;10.52;;;9.50;99.50;;;;;;5075810;28;20097;-61
2022/03/28 07:26:30;;;;;;;20.55;10.50;;;9.60;99.50;;;;;;5057973;28;20029;-61
2022/03/28 07:29:00;;;;;;;21.33;9.70;;;9.60;99.50;;;;;;5076426;28;20036;-60
2022/03/28 07:31:25;;;;;;;19.17;9.20;;;9.70;99.60;;;;;;5076647;28;20048;-60
2022/03/28 07:33:51;;;;;;;17.73;9.83;;;9.80;99.40;;;;;;5076319;28;20025;-61
2022/03/28 07:36:19;;;;;;;21.90;10.00;;;9.80;99.20;;;;;;5076066;28;20020;-60
2022/03/28 07:38:44;;;;;;;20.27;10.73;;;9.90;99.10;;;;;;5076174;28;20093;-60
2022/03/28 07:41:10;;;;;;;27.73;10.43;;;9.90;99.00;;;;;;5075761;28;20024;-58
2022/03/28 07:43:35;;;;;;;12.97;8.77;;;10.00;98.90;;;;;;5075871;28;20067;-59
2022/03/28 07:46:01;;;;;;;18.07;9.40;;;10.20;98.80;;;;;;5075488;28;20035;-61
2022/03/28 07:48:27;;;;;;;15.33;9.03;;;10.20;98.50;;;;;;5075684;28;20027;-62
2022/03/28 07:50:53;;;;;;;16.45;8.80;;;10.30;98.40;;;;;;5075644;28;20120;-59
2022/03/28 07:53:18;;;;;;;15.88;9.35;;;10.50;98.30;;;;;;5075541;28;20157;-60
2022/03/28 07:55:45;;;;;;;20.08;9.70;;;10.60;98.00;;;;;;5075536;28;20036;-60
2022/03/28 07:58:12;;;;;;;19.10;9.40;;;10.70;98.00;;;;;;5076610;28;20025;-62
2022/03/28 08:00:39;;;;;;;19.13;10.20;;;10.80;97.90;;;;;;5075966;28;20024;-61
2022/03/28 08:03:05;;;;;;;17.35;8.90;;;10.90;97.60;;;;;;5057550;28;20458;-61
2022/03/28 08:05:31;;;;;;;17.90;9.90;;;11.10;97.50;;;;;;5075317;28;20437;-61
2022/03/28 08:07:57;;;;;;;19.07;8.90;;;11.20;97.20;;;;;;5075403;28;20020;-61
2022/03/28 08:10:24;;;;;;;21.30;9.77;;;11.30;96.90;;;;;;5074957;28;20020;-62
2022/03/28 08:12:51;;;;;;;20.67;9.70;;;11.40;96.60;;;;;;5075340;28;20035;-61
2022/03/28 08:15:18;;;;;;;19.40;10.50;;;11.50;96.50;;;;;;5075315;28;20024;-64
2022/03/28 08:17:44;;;;;;;20.15;9.50;;;11.60;95.90;;;;;;5075644;28;20032;-62
2022/03/28 08:20:11;;;;;;;18.27;9.90;;;11.70;95.70;;;;;;5075422;28;20028;-61
2022/03/28 08:22:39;;;;;;;17.75;10.38;;;11.90;95.20;;;;;;5075616;28;20066;-61
2022/03/28 08:25:05;;;;;;;21.23;10.93;;;12.00;94.60;;;;;;5075617;28;20056;-60
2022/03/28 08:27:31;;;;;;;17.08;10.88;;;12.10;94.10;;;;;;5075229;28;20021;-60
2022/03/28 08:29:57;;;;;;;19.05;11.20;;;12.30;93.70;;;;;;5057308;28;20025;-61
2022/03/28 08:32:22;;;;;;;19.43;10.77;;;12.40;93.40;;;;;;5074933;28;20036;-63
2022/03/28 08:34:49;;;;;;;24.95;11.38;;;12.50;93.00;;;;;;5074948;28;20028;-59
2022/03/28 08:37:18;;;;;;;22.92;10.70;;;12.60;92.60;;;;;;5075007;28;20033;-61
2022/03/28 08:39:45;;;;;;;20.85;11.35;;;12.70;92.10;;;;;;5075335;28;20048;-59
2022/03/28 08:42:12;;;;;;;23.92;11.25;;;12.90;92.00;;;;;;5075108;28;20036;-64
2022/03/28 08:44:41;;;;;;;21.95;10.65;;;13.10;91.80;;;;;;5074682;28;20036;-63
2022/03/28 08:47:09;;;;;;;19.63;10.35;;;13.30;91.40;;;;;;5075134;28;20160;-63
2022/03/28 08:49:36;;;;;;;19.58;10.98;;;13.50;91.10;;;;;;5075347;28;20470;-64
2022/03/28 08:52:04;;;;;;;16.98;10.60;;;14.60;89.40;;;;;;5074973;28;20032;-64
2022/03/28 08:54:29;;;;;;;18.77;10.80;;;16.50;82.60;;;;;;5074701;28;20025;-65
2022/03/28 08:56:55;;;;;;;18.57;11.33;;;18.70;74.30;;;;;;5074909;28;20024;-63
2022/03/28 08:59:21;;;;;;;18.38;10.68;;;20.80;67.70;;;;;;5075027;28;20301;-64
2022/03/28 09:01:48;;;;;;;16.35;10.32;;;22.80;60.80;;;;;;5074787;28;20047;-65
2022/03/28 09:04:15;;;;;;;17.67;10.73;;;23.80;57.10;;;;;;5074651;28;20074;-63
2022/03/28 09:06:43;;;;;;;17.52;11.07;;;24.90;54.00;;;;;;5074769;28;20463;-63
2022/03/28 09:09:16;;;;;;;20.42;11.80;;;25.80;51.70;;;;;;5074638;28;20035;-64
2022/03/28 09:11:44;;;;;;;16.38;10.68;;;26.60;49.50;;;;;;5074560;28;20051;-64
2022/03/28 09:14:24;;;;;;;17.35;12.38;;;27.00;48.90;;;;;;5074509;28;20043;-65
2022/03/28 09:17:09;;;;;;;15.98;11.18;;;27.20;47.70;;;;;;5056555;28;20025;-65
2022/03/28 09:19:48;;;;;;;16.35;11.25;;;28.10;47.50;;;;;;5074184;28;20108;-64
2022/03/28 09:22:19;;;;;;;17.00;11.82;;;28.40;46.30;;;;;;5074513;28;20028;-64
2022/03/28 09:24:45;;;;;;;18.73;11.75;;;28.80;45.80;;;;;;5075348;28;20020;-64
2022/03/28 09:27:12;;;;;;;17.80;11.13;;;29.10;45.00;;;;;;5074281;28;20020;-64
2022/03/28 09:29:55;;;;;;;16.38;11.50;;;29.40;44.70;;;;;;5074508;28;20485;-64
2022/03/28 09:32:22;;;;;;;15.30;11.68;;;29.50;44.40;;;;;;5074149;28;20502;-64
2022/03/28 09:35:13;;;;;;;16.50;10.55;;;29.60;44.20;;;;;;5073609;28;20494;-64
2022/03/28 09:37:48;;;;;;;18.75;11.55;;;30.30;43.60;;;;;;5074093;28;20024;-64
2022/03/28 09:40:36;;;;;;;15.73;11.48;;;30.80;43.00;;;;;;5073659;28;20027;-63
2022/03/28 09:43:06;;;;;;;17.60;12.70;;;31.10;42.50;;;;;;5073982;28;20032;-65
2022/03/28 09:45:38;;;;;;;17.95;11.90;;;30.80;42.60;;;;;;5073717;28;20024;-64
2022/03/28 09:48:08;;;;;;;18.70;12.02;;;31.10;42.60;;;;;;5073976;28;20024;-64
2022/03/28 09:50:39;;;;;;;21.90;12.70;;;31.60;41.90;;;;;;5073615;28;20611;-62
2022/03/28 09:53:21;;;;;;;16.58;11.98;;;31.80;41.40;;;;;;5073723;28;20031;-64
2022/03/28 09:55:55;;;;;;;19.38;11.70;;;31.80;41.40;;;;;;5055689;28;20053;-64
2022/03/28 09:58:47;;;;;;;19.92;13.20;;;32.10;41.10;;;;;;5073856;28;20025;-63
2022/03/28 10:01:25;;;;;;;15.93;12.43;;;32.20;40.80;;;;;;5073902;28;20020;-64
2022/03/28 10:03:52;;;;;;;16.15;12.30;;;31.80;40.60;;;;;;5073884;28;20072;-62
2022/03/28 10:06:19;;;;;;;21.20;14.18;;;31.80;40.80;;;;;;5073328;28;20028;-64
2022/03/28 10:08:45;;;;;;;24.17;13.38;;;31.90;40.70;;;;;;5073357;28;20471;-65
2022/03/28 10:11:11;;;;;;;24.17;13.30;;;32.10;40.60;;;;;;5073140;28;20112;-64
2022/03/28 10:13:38;;;;;;;18.08;12.43;;;32.70;40.30;;;;;;5073172;28;20016;-64
2022/03/28 10:16:05;;;;;;;17.90;13.20;;;32.90;39.90;;;;;;5073253;28;20025;-64
2022/03/28 10:18:35;;;;;;;18.50;12.48;;;32.60;39.70;;;;;;5073159;28;20029;-64
2022/03/28 10:21:20;;;;;;;20.10;13.55;;;32.60;39.60;;;;;;5055452;28;20031;-65
2022/03/28 10:24:20;;;;;;;18.70;12.95;;;32.40;40.00;;;;;;5055243;28;20119;-64
2022/03/28 10:26:51;;;;;;;20.85;13.05;;;31.80;39.80;;;;;;5073180;28;20028;-64
2022/03/28 10:29:18;;;;;;;20.85;13.07;;;31.50;40.20;;;;;;5073049;28;20024;-65
2022/03/28 10:31:55;;;;;;;18.00;12.95;;;31.70;40.40;;;;;;5073297;28;20367;-67
2022/03/28 10:34:52;;;;;;;18.65;13.20;;;32.40;39.90;;;;;;5072682;28;20029;-64
2022/03/28 10:37:36;;;;;;;19.15;13.30;;;32.50;39.70;;;;;;5073363;28;20035;-64
2022/03/28 10:40:23;;;;;;;19.15;13.32;;;32.80;39.40;;;;;;5073587;28;20055;-65
2022/03/28 10:43:07;;;;;;;22.00;13.82;;;32.90;39.10;;;;;;5073321;28;20097;-65
2022/03/28 10:45:39;;;;;;;20.90;13.13;;;33.20;38.90;;;;;;5072999;28;20108;-64
2022/03/28 10:48:07;;;;;;;19.45;12.43;;;33.30;39.20;;;;;;5073060;28;20150;-65
2022/03/28 10:50:42;;;;;;;23.15;13.13;;;33.60;39.40;;;;;;5073524;28;20490;-65
2022/03/28 10:53:29;;;;;;;19.42;13.55;;;32.80;40.10;;;;;;5073191;28;20033;-64
2022/03/28 10:56:25;;;;;;;28.05;14.05;;;32.70;39.70;;;;;;5054827;28;20032;-64
2022/03/28 10:58:59;;;;;;;19.55;13.98;;;32.90;40.20;;;;;;5059887;28;20483;-64
2022/03/28 11:01:33;;;;;;;19.58;13.85;;;32.70;39.60;;;;;;5073298;28;20067;-63
2022/03/28 11:04:06;;;;;;;25.17;14.27;;;32.60;39.10;;;;;;5073281;28;20087;-65
2022/03/28 11:06:53;;;;;;;22.38;12.95;;;32.60;39.50;;;;;;5072906;28;20605;-64
2022/03/28 11:09:56;;;;;;;30.60;15.13;;;32.10;39.30;;;;;;5073230;28;20040;-64
2022/03/28 11:12:37;;;;;;;19.35;13.10;;;30.70;41.40;;;;;;5072899;28;20016;-64
2022/03/28 11:15:15;;;;;;;18.73;12.75;;;29.20;41.70;;;;;;5054703;28;20207;-64
2022/03/28 11:18:02;;;;;;;31.75;16.88;;;27.80;41.40;;;;;;5072669;28;20387;-65
2022/03/28 11:20:42;;;;;;;30.27;15.55;;;26.00;44.70;;;;;;5073026;28;20017;-63
2022/03/28 11:23:10;;;;;;;25.73;14.02;;;25.00;45.10;;;;;;5073646;28;20025;-63
2022/03/28 11:25:44;;;;;;;64.97;23.70;;;23.70;46.80;;;;;;5072807;28;20025;-64
2022/03/28 11:28:14;;;;;;;87.50;29.40;;;22.90;50.30;;;;;;5073438;28;20024;-64
2022/03/28 11:30:46;;;;;;;33.78;15.80;;;22.40;53.70;;;;;;5073647;28;20025;-64
2022/03/28 11:33:17;;;;;;;92.72;27.52;;;22.00;50.00;;;;;;5072973;28;20028;-64
2022/03/28 11:36:02;;;;;;;44.63;17.70;;;21.60;54.50;;;;;;5073256;28;20028;-63
2022/03/28 11:38:31;;;;;;;57.65;21.45;;;21.10;51.50;;;;;;5072464;28;20099;-64
2022/03/28 11:40:57;;;;;;;23.20;13.82;;;20.70;52.60;;;;;;5072627;28;20475;-63
2022/03/28 11:43:32;;;;;;;24.55;14.35;;;20.50;50.10;;;;;;5072523;28;20116;-63
2022/03/28 11:45:58;;;;;;;25.42;13.05;;;20.50;50.80;;;;;;5074847;28;20074;-64
2022/03/28 11:48:24;;;;;;;36.80;16.98;;;20.40;50.70;;;;;;5076037;28;20386;-65
2022/03/28 11:50:50;;;;;;;28.10;13.30;;;20.40;53.40;;;;;;5076003;28;20157;-64
2022/03/28 11:53:18;;;;;;;22.77;12.80;;;20.30;51.00;;;;;;5075903;28;20444;-62
2022/03/28 11:55:56;;;;;;;28.42;14.77;;;20.30;50.70;;;;;;5075925;28;20498;-63
2022/03/28 11:58:32;;;;;;;24.77;13.48;;;20.30;51.90;;;;;;5076017;28;20032;-64
2022/03/28 12:01:10;;;;;;;23.58;12.25;;;20.30;50.20;;;;;;5076280;28;20021;-63
2022/03/28 12:03:37;;;;;;;23.92;12.40;;;20.20;51.10;;;;;;5058434;28;20032;-62
2022/03/28 12:06:04;;;;;;;47.83;18.92;;;20.30;51.00;;;;;;5057591;28;20056;-64
2022/03/28 12:08:33;;;;;;;29.73;12.82;;;20.30;55.20;;;;;;5075678;28;20383;-64
2022/03/28 12:10:58;;;;;;;37.38;14.82;;;20.30;51.50;;;;;;5075361;28;20021;-64
2022/03/28 12:13:25;;;;;;;22.55;11.80;;;20.30;52.30;;;;;;5057750;28;20386;-63
2022/03/28 12:15:52;;;;;;;22.73;12.20;;;20.40;50.50;;;;;;5057427;28;20052;-64
2022/03/28 12:18:20;;;;;;;46.00;17.38;;;20.40;49.80;;;;;;5075799;28;20111;-63
2022/03/28 12:20:50;;;;;;;38.88;15.35;;;20.50;52.60;;;;;;5075521;28;20497;-62
2022/03/28 12:23:19;;;;;;;26.02;13.32;;;20.40;51.20;;;;;;5076159;28;20035;-64
2022/03/28 12:25:46;;;;;;;23.58;13.13;;;20.40;51.00;;;;;;5075694;28;20028;-63
2022/03/28 12:28:17;;;;;;;40.85;17.83;;;20.20;51.30;;;;;;5075745;28;20028;-64
2022/03/28 12:30:52;;;;;;;54.75;20.30;;;20.20;50.80;;;;;;5075986;28;20442;-63
2022/03/28 12:33:20;;;;;;;24.27;12.27;;;20.20;51.60;;;;;;5075842;28;20021;-64
2022/03/28 12:35:50;;;;;;;21.15;11.07;;;20.40;50.70;;;;;;5075455;28;20055;-64
2022/03/28 12:38:21;;;;;;;20.15;11.18;;;20.40;49.50;;;;;;5075586;28;20064;-64
2022/03/28 12:40:52;;;;;;;39.35;16.27;;;20.60;49.30;;;;;;5075024;28;20027;-63
2022/03/28 12:43:20;;;;;;;31.15;14.73;;;20.60;50.10;;;;;;5075203;28;20059;-64